Time;durP1;ratioP1;P1;durP2;ratioP2;P2;SDS_P1;SDS_P2;PMS_P1;PMS_P2;Temp;Humidity;BMP_temperature;BMP_pressure;BME280_temperature;BME280_humidity;BME280_pressure;Samples;Min_cycle;Max_cycle;Signal;HPM_P1;HPM_P2
2021/04/13 00:02:24;;;;;;;15.15;12.77;;;0.40;99.90;;;;;;5049258;28;20070;-73
2021/04/13 00:04:55;;;;;;;15.63;13.32;;;0.50;99.90;;;;;;5045450;28;20359;-73
2021/04/13 00:07:24;;;;;;;14.75;13.25;;;0.50;99.90;;;;;;5050204;28;20441;-73
2021/04/13 00:09:50;;;;;;;16.38;13.15;;;0.60;99.90;;;;;;5040615;28;20021;-73
2021/04/13 00:12:26;;;;;;;12.85;11.40;;;0.70;99.90;;;;;;5047264;28;20056;-73
2021/04/13 00:15:03;;;;;;;12.25;11.10;;;0.60;99.90;;;;;;5041944;28;20386;-73
2021/04/13 00:17:31;;;;;;;12.27;11.10;;;0.40;99.90;;;;;;5040978;28;20390;-73
2021/04/13 00:20:21;;;;;;;12.23;11.07;;;0.20;99.90;;;;;;5041607;28;20068;-73
2021/04/13 00:22:48;;;;;;;11.82;10.23;;;0.40;99.90;;;;;;5045943;28;20062;-73
2021/04/13 00:25:24;;;;;;;13.05;10.50;;;0.40;99.90;;;;;;5047411;28;20033;-73
2021/04/13 00:27:50;;;;;;;11.05;9.77;;;0.40;99.90;;;;;;5045003;28;20024;-73
2021/04/13 00:30:20;;;;;;;11.48;10.32;;;0.40;99.90;;;;;;5042299;28;20475;-73
2021/04/13 00:32:48;;;;;;;10.52;9.32;;;0.40;99.90;;;;;;5040273;28;20017;-73
2021/04/13 00:36:08;;;;;;;10.13;9.18;;;0.50;99.90;;;;;;5040678;28;20021;-73
2021/04/13 00:38:34;;;;;;;9.15;8.23;;;0.70;99.90;;;;;;5040984;28;20033;-72
2021/04/13 00:41:14;;;;;;;10.00;9.10;;;0.80;99.90;;;;;;5019016;28;20044;-73
2021/04/13 00:43:52;;;;;;;9.95;8.88;;;0.70;99.90;;;;;;5038703;28;20029;-73
2021/04/13 00:46:21;;;;;;;10.00;9.13;;;0.80;99.90;;;;;;5041780;28;20109;-72
2021/04/13 00:48:48;;;;;;;11.05;9.95;;;0.70;99.90;;;;;;5038148;28;20017;-73
2021/04/13 00:51:20;;;;;;;10.02;8.98;;;0.50;99.90;;;;;;5043873;28;20529;-73
2021/04/13 00:53:48;;;;;;;10.43;9.38;;;0.50;99.90;;;;;;5051726;28;20254;-72
2021/04/13 00:56:17;;;;;;;10.27;9.20;;;0.40;99.90;;;;;;5050192;28;20027;-73
2021/04/13 00:59:01;;;;;;;9.60;8.70;;;0.40;99.90;;;;;;5044376;28;20111;-73
2021/04/13 01:01:31;;;;;;;9.48;8.68;;;0.40;99.90;;;;;;5042483;28;20079;-73
2021/04/13 01:04:02;;;;;;;10.18;9.20;;;0.50;99.90;;;;;;5042434;28;20017;-73
2021/04/13 01:06:31;;;;;;;8.82;7.90;;;0.60;99.90;;;;;;5039864;28;20033;-73
2021/04/13 01:09:23;;;;;;;7.82;7.13;;;0.50;99.90;;;;;;5033157;28;20020;-73
2021/04/13 01:12:08;;;;;;;9.10;8.20;;;0.70;99.90;;;;;;5036615;28;20013;-73
2021/04/13 01:14:34;;;;;;;9.52;8.60;;;0.70;99.90;;;;;;5041444;28;20017;-74
2021/04/13 01:17:03;;;;;;;8.88;8.07;;;0.50;99.90;;;;;;5038629;28;20033;-72
2021/04/13 01:19:42;;;;;;;9.27;8.25;;;0.40;99.90;;;;;;5063678;28;20025;-73
2021/04/13 01:22:51;;;;;;;10.27;8.50;;;0.60;99.90;;;;;;5041499;28;20151;-73
2021/04/13 01:25:24;;;;;;;9.02;8.13;;;0.50;99.90;;;;;;5046056;28;20041;-73
2021/04/13 01:27:55;;;;;;;9.93;8.93;;;0.60;99.90;;;;;;5045097;28;20021;-73
2021/04/13 01:30:28;;;;;;;10.07;9.07;;;0.20;99.90;;;;;;5048947;28;20021;-73
2021/04/13 01:33:05;;;;;;;9.77;8.88;;;0.30;99.90;;;;;;5051981;28;20047;-73
2021/04/13 01:35:30;;;;;;;10.10;8.70;;;0.20;99.90;;;;;;5037759;28;20013;-73
2021/04/13 01:38:16;;;;;;;10.23;9.32;;;0.30;99.90;;;;;;5046681;28;20372;-73
2021/04/13 01:40:46;;;;;;;11.27;10.27;;;0.30;99.90;;;;;;5034020;28;20048;-73
2021/04/13 01:43:13;;;;;;;10.55;9.55;;;0.30;99.90;;;;;;5040715;28;20025;-74
2021/04/13 01:45:40;;;;;;;10.52;9.52;;;0.30;99.90;;;;;;5046477;28;20164;-73
2021/04/13 01:48:09;;;;;;;10.77;9.88;;;0.30;99.90;;;;;;5038019;28;20013;-73
2021/04/13 01:50:41;;;;;;;11.52;10.15;;;0.30;99.90;;;;;;5045068;28;20071;-73
2021/04/13 01:53:17;;;;;;;11.13;10.13;;;0.20;99.90;;;;;;5047683;28;20542;-73
2021/04/13 01:55:50;;;;;;;12.55;11.30;;;0.10;99.90;;;;;;5041510;28;20037;-73
2021/04/13 01:58:24;;;;;;;11.93;10.73;;;0.20;99.90;;;;;;5046771;28;20059;-73
2021/04/13 02:00:59;;;;;;;11.43;10.32;;;0.40;99.90;;;;;;5032515;28;20476;-73
2021/04/13 02:03:33;;;;;;;12.02;10.32;;;0.50;99.90;;;;;;5046705;28;20532;-74
2021/04/13 02:06:02;;;;;;;10.70;9.07;;;0.50;99.90;;;;;;5046246;28;20474;-73
2021/04/13 02:08:39;;;;;;;10.50;9.45;;;0.60;99.90;;;;;;5045327;28;20417;-73
2021/04/13 02:11:25;;;;;;;10.90;9.80;;;0.40;99.90;;;;;;5040617;28;20425;-73
2021/04/13 02:14:02;;;;;;;10.60;9.70;;;0.40;99.90;;;;;;5044604;28;20029;-73
2021/04/13 02:16:34;;;;;;;10.98;9.60;;;0.50;99.90;;;;;;5045097;28;20029;-73
2021/04/13 02:19:01;;;;;;;11.13;9.95;;;0.50;99.90;;;;;;5037471;28;20025;-73
2021/04/13 02:21:52;;;;;;;11.63;10.45;;;0.40;99.90;;;;;;5045767;28;20391;-73
2021/04/13 02:24:24;;;;;;;13.02;11.73;;;0.50;99.90;;;;;;5043336;28;20040;-73
2021/04/13 02:26:53;;;;;;;10.80;9.80;;;0.30;99.90;;;;;;5045860;28;20023;-73
2021/04/13 02:29:33;;;;;;;10.88;9.77;;;0.00;99.90;;;;;;5043081;28;20430;-73
2021/04/13 02:32:09;;;;;;;11.30;10.23;;;0.00;99.90;;;;;;5041947;28;20070;-72
2021/04/13 02:34:39;;;;;;;11.32;10.10;;;0.00;99.90;;;;;;5035679;28;20030;-73
2021/04/13 02:37:31;;;;;;;10.52;9.63;;;0.00;99.90;;;;;;5044153;28;20025;-73
2021/04/13 02:40:05;;;;;;;11.32;10.13;;;0.10;99.90;;;;;;5041278;28;20037;-73
2021/04/13 02:42:38;;;;;;;11.70;10.60;;;0.20;99.90;;;;;;5036544;28;20048;-72
2021/04/13 02:45:08;;;;;;;13.52;12.20;;;0.10;99.90;;;;;;5039462;28;20039;-73
2021/04/13 02:47:45;;;;;;;12.40;11.20;;;0.10;99.90;;;;;;5040635;28;20053;-73
2021/04/13 02:50:16;;;;;;;13.65;11.60;;;0.10;99.90;;;;;;5044967;28;20016;-73
2021/04/13 02:52:46;;;;;;;13.43;11.95;;;0.00;99.90;;;;;;5043868;28;20021;-72
2021/04/13 02:55:26;;;;;;;13.68;12.38;;;0.10;99.90;;;;;;5044160;28;20078;-73
2021/04/13 02:57:54;;;;;;;14.07;12.57;;;0.00;99.90;;;;;;5041505;28;20021;-73
2021/04/13 03:00:29;;;;;;;15.18;13.57;;;-0.20;99.90;;;;;;5040000;28;20022;-72
2021/04/13 03:02:57;;;;;;;15.70;14.23;;;-0.40;99.90;;;;;;5024428;28;20053;-73
2021/04/13 03:05:26;;;;;;;14.73;13.15;;;-0.50;99.90;;;;;;5043251;28;20337;-72
2021/04/13 03:07:55;;;;;;;14.10;12.70;;;-0.50;99.90;;;;;;5043697;28;20414;-73
2021/04/13 03:10:28;;;;;;;12.80;11.52;;;-0.40;99.90;;;;;;5043660;28;20017;-73
2021/04/13 03:12:54;;;;;;;13.18;11.88;;;-0.30;99.90;;;;;;5046454;28;20067;-73
2021/04/13 03:15:24;;;;;;;13.43;12.18;;;-0.30;99.90;;;;;;5043438;28;20071;-73
2021/04/13 03:17:58;;;;;;;13.32;12.13;;;-0.10;99.90;;;;;;5046356;28;20545;-73
2021/04/13 03:20:28;;;;;;;12.57;11.48;;;-0.40;99.90;;;;;;5045346;28;20052;-73
2021/04/13 03:22:58;;;;;;;12.25;11.15;;;-0.40;99.90;;;;;;5052975;28;20495;-73
2021/04/13 03:25:29;;;;;;;12.68;11.48;;;-0.40;99.90;;;;;;5044401;28;20030;-73
2021/04/13 03:27:55;;;;;;;12.95;11.55;;;-0.40;99.90;;;;;;5043816;28;20017;-73
2021/04/13 03:30:28;;;;;;;13.93;12.63;;;-0.40;99.90;;;;;;5044736;28;20373;-73
2021/04/13 03:32:58;;;;;;;14.52;13.15;;;-0.50;99.90;;;;;;5043835;28;20020;-73
2021/04/13 03:35:26;;;;;;;14.05;12.65;;;-0.40;99.90;;;;;;5044644;28;20029;-72
2021/04/13 03:37:54;;;;;;;15.52;13.93;;;-0.50;99.90;;;;;;5044809;28;20017;-72
2021/04/13 03:40:24;;;;;;;15.35;13.75;;;-0.50;99.90;;;;;;5051943;28;20028;-73
2021/04/13 03:43:05;;;;;;;17.10;15.40;;;-0.70;99.90;;;;;;5049602;28;20063;-72
2021/04/13 03:45:32;;;;;;;16.02;14.10;;;-0.60;99.90;;;;;;5021118;28;20026;-72
2021/04/13 03:48:05;;;;;;;15.75;13.35;;;-0.70;99.90;;;;;;5021305;28;20018;-72
2021/04/13 03:50:31;;;;;;;14.23;12.82;;;-0.60;99.90;;;;;;5018986;28;20545;-72
2021/04/13 03:53:10;;;;;;;14.57;12.82;;;-0.70;99.90;;;;;;5013137;28;20050;-72
2021/04/13 03:55:36;;;;;;;14.63;12.88;;;-0.80;99.90;;;;;;5015146;28;20533;-71
2021/04/13 03:58:21;;;;;;;13.75;12.35;;;-0.70;99.90;;;;;;5043236;28;20017;-71
2021/04/13 04:00:47;;;;;;;14.18;11.85;;;-0.80;99.90;;;;;;5047411;28;20048;-71
2021/04/13 04:03:13;;;;;;;14.43;12.13;;;-0.70;99.90;;;;;;5021979;28;20021;-72
2021/04/13 04:05:52;;;;;;;13.32;11.45;;;-0.70;99.90;;;;;;5026915;28;20040;-72
2021/04/13 04:08:43;;;;;;;15.80;12.30;;;-0.60;99.90;;;;;;5012920;28;20030;-73
2021/04/13 04:11:10;;;;;;;14.55;12.93;;;-0.60;99.90;;;;;;5014161;28;20022;-72
2021/04/13 04:13:45;;;;;;;14.27;12.75;;;-0.70;99.90;;;;;;5013887;28;20017;-73
2021/04/13 04:16:17;;;;;;;12.43;11.07;;;-0.80;99.90;;;;;;5012704;28;20030;-71
2021/04/13 04:18:44;;;;;;;14.52;12.20;;;-0.80;99.90;;;;;;5013919;28;20454;-71
2021/04/13 04:21:36;;;;;;;15.38;13.88;;;-0.80;99.90;;;;;;5026724;28;20022;-71
2021/04/13 04:24:07;;;;;;;13.18;11.75;;;-0.80;99.90;;;;;;5013142;28;20048;-73
2021/04/13 04:26:58;;;;;;;13.27;11.82;;;-0.80;99.90;;;;;;5025499;28;20081;-73
2021/04/13 04:29:29;;;;;;;14.02;11.43;;;-0.90;99.90;;;;;;5026557;28;20544;-72
2021/04/13 04:32:09;;;;;;;14.00;12.70;;;-0.90;99.90;;;;;;5021582;28;20204;-73
2021/04/13 04:34:34;;;;;;;16.38;13.50;;;-0.90;99.90;;;;;;5018899;28;20025;-72
2021/04/13 04:37:00;;;;;;;13.75;10.98;;;-0.90;99.90;;;;;;5033378;28;20025;-74
2021/04/13 04:39:36;;;;;;;11.60;10.50;;;-1.00;99.90;;;;;;5018632;28;20040;-72
2021/04/13 04:42:28;;;;;;;13.02;11.73;;;-0.80;99.90;;;;;;5021250;28;20022;-72
2021/04/13 04:45:13;;;;;;;14.65;13.10;;;-0.80;99.90;;;;;;5018136;28;20038;-72
2021/04/13 04:47:39;;;;;;;13.82;12.25;;;-0.70;99.90;;;;;;5016236;28;20101;-71
2021/04/13 04:50:06;;;;;;;13.70;12.30;;;-0.80;99.90;;;;;;5012007;28;20478;-72
2021/04/13 04:52:31;;;;;;;16.00;12.95;;;-0.80;99.90;;;;;;5030092;28;20104;-72
2021/04/13 04:54:57;;;;;;;15.63;14.02;;;-0.90;99.90;;;;;;5022750;28;20121;-72
2021/04/13 04:57:22;;;;;;;14.02;12.20;;;-1.00;99.90;;;;;;5030212;28;20476;-73
2021/04/13 04:59:48;;;;;;;14.88;13.40;;;-0.90;99.90;;;;;;5021780;28;20068;-73
2021/04/13 05:02:13;;;;;;;14.60;12.48;;;-0.90;99.90;;;;;;5015200;28;20447;-72
2021/04/13 05:04:39;;;;;;;15.18;13.68;;;-0.70;99.90;;;;;;5021270;28;20026;-72
2021/04/13 05:07:05;;;;;;;14.00;12.60;;;-0.50;99.90;;;;;;5026208;28;20022;-72
2021/04/13 05:09:30;;;;;;;14.40;12.35;;;-0.60;99.90;;;;;;5011530;28;20030;-73
2021/04/13 05:11:56;;;;;;;16.48;13.38;;;-0.70;99.90;;;;;;5031478;28;20025;-73
2021/04/13 05:14:21;;;;;;;13.32;12.02;;;-0.70;99.90;;;;;;5041108;28;20494;-72
2021/04/13 05:16:49;;;;;;;14.57;13.18;;;-0.70;99.90;;;;;;5017567;28;20021;-72
2021/04/13 05:19:15;;;;;;;15.20;13.65;;;-0.60;99.90;;;;;;5032561;28;20017;-72
2021/04/13 05:21:40;;;;;;;14.75;13.25;;;-0.50;99.90;;;;;;5029269;28;20080;-72
2021/04/13 05:24:06;;;;;;;15.20;12.32;;;-0.50;99.90;;;;;;5032114;28;20057;-70
2021/04/13 05:26:32;;;;;;;13.75;12.45;;;-0.40;99.90;;;;;;5032590;28;20028;-72
2021/04/13 05:28:57;;;;;;;14.45;12.77;;;-0.30;99.90;;;;;;5022401;28;20026;-72
2021/04/13 05:31:23;;;;;;;15.65;13.73;;;-0.30;99.90;;;;;;5017899;28;20030;-73
2021/04/13 05:33:49;;;;;;;15.35;13.70;;;-0.30;99.90;;;;;;5022435;28;20021;-72
2021/04/13 05:36:14;;;;;;;16.10;13.70;;;-0.30;99.90;;;;;;5028094;28;20237;-72
2021/04/13 05:38:42;;;;;;;18.80;14.43;;;-0.20;99.90;;;;;;5030820;28;20585;-72
2021/04/13 05:41:12;;;;;;;16.83;14.52;;;-0.30;99.90;;;;;;5017498;28;20083;-72
2021/04/13 05:43:38;;;;;;;13.90;12.27;;;-0.10;99.90;;;;;;5021239;28;20026;-73
2021/04/13 05:46:04;;;;;;;16.38;14.43;;;-0.20;99.90;;;;;;5025606;28;20102;-72
2021/04/13 05:48:30;;;;;;;18.23;16.15;;;-0.10;99.90;;;;;;5023156;28;20419;-72
2021/04/13 05:50:56;;;;;;;17.15;15.45;;;-0.10;99.90;;;;;;5017799;28;20075;-73
2021/04/13 05:53:22;;;;;;;16.50;14.88;;;-0.10;99.90;;;;;;5021197;28;20017;-72
2021/04/13 05:55:50;;;;;;;16.85;14.73;;;0.10;99.90;;;;;;5028001;28;20510;-72
2021/04/13 05:58:20;;;;;;;16.42;14.90;;;0.00;99.90;;;;;;5021214;28;20034;-72
2021/04/13 06:00:49;;;;;;;16.58;14.88;;;0.10;99.90;;;;;;5025505;28;20121;-72
2021/04/13 06:03:17;;;;;;;15.82;14.32;;;0.30;99.90;;;;;;5023771;28;20035;-72
2021/04/13 06:05:43;;;;;;;16.35;14.63;;;0.50;99.90;;;;;;5018321;28;20025;-72
2021/04/13 06:08:10;;;;;;;16.13;14.55;;;0.60;99.90;;;;;;5019852;28;20519;-72
2021/04/13 06:10:36;;;;;;;15.18;13.68;;;0.60;99.90;;;;;;5025279;28;20076;-73
2021/04/13 06:13:02;;;;;;;14.95;13.35;;;0.70;99.90;;;;;;5022809;28;20021;-73
2021/04/13 06:15:29;;;;;;;16.65;14.90;;;0.90;99.90;;;;;;5023719;28;20049;-72
2021/04/13 06:17:56;;;;;;;21.35;15.98;;;1.00;99.90;;;;;;5039230;28;20044;-72
2021/04/13 06:20:23;;;;;;;18.00;16.23;;;1.00;99.90;;;;;;5043631;28;20056;-72
2021/04/13 06:22:49;;;;;;;29.73;24.92;;;0.90;99.90;;;;;;5031386;28;20029;-72
2021/04/13 06:25:22;;;;;;;19.30;17.23;;;1.00;99.90;;;;;;5022667;28;20076;-72
2021/04/13 06:27:48;;;;;;;17.25;15.55;;;1.00;99.90;;;;;;5021382;28;20022;-72
2021/04/13 06:30:15;;;;;;;19.10;17.20;;;1.00;99.90;;;;;;5027589;28;20395;-72
2021/04/13 06:32:41;;;;;;;21.55;18.70;;;1.10;99.90;;;;;;5041801;28;20025;-72
2021/04/13 06:35:07;;;;;;;25.40;21.90;;;1.10;99.90;;;;;;5055229;28;20029;-72
2021/04/13 06:37:37;;;;;;;25.65;22.15;;;1.00;99.90;;;;;;5039719;28;20083;-72
2021/04/13 06:40:05;;;;;;;23.95;21.35;;;1.10;99.90;;;;;;5027558;28;20022;-72
2021/04/13 06:42:47;;;;;;;22.95;20.55;;;1.00;99.90;;;;;;5028543;28;20144;-72
2021/04/13 06:45:29;;;;;;;21.27;18.83;;;1.00;99.90;;;;;;5025873;28;20534;-72
2021/04/13 06:48:13;;;;;;;20.52;18.33;;;1.10;99.90;;;;;;5029412;28;20029;-72
2021/04/13 06:51:06;;;;;;;19.95;17.95;;;1.20;99.90;;;;;;5030530;28;20029;-72
2021/04/13 06:54:16;;;;;;;20.08;18.00;;;1.30;99.90;;;;;;5022667;28;20022;-72
2021/04/13 06:57:00;;;;;;;18.80;16.80;;;1.20;99.90;;;;;;5024989;28;20041;-72
2021/04/13 06:59:51;;;;;;;19.40;17.50;;;1.20;99.90;;;;;;5022741;28;20431;-72
2021/04/13 07:02:27;;;;;;;21.08;18.77;;;1.30;99.90;;;;;;5020314;28;20032;-72
2021/04/13 07:05:12;;;;;;;20.55;18.13;;;1.40;99.90;;;;;;5022822;28;20030;-72
2021/04/13 07:07:57;;;;;;;20.05;18.00;;;1.50;99.90;;;;;;5021786;28;20021;-71
2021/04/13 07:10:49;;;;;;;19.38;17.40;;;1.60;99.90;;;;;;5020366;28;20022;-72
2021/04/13 07:13:33;;;;;;;19.33;17.30;;;1.80;99.90;;;;;;5021525;28;20041;-72
2021/04/13 07:16:02;;;;;;;19.63;17.63;;;1.90;99.90;;;;;;5023731;28;20033;-72
2021/04/13 07:18:37;;;;;;;17.90;16.08;;;1.90;99.90;;;;;;5028022;28;20026;-72
2021/04/13 07:21:27;;;;;;;18.90;16.88;;;1.90;99.90;;;;;;5026739;28;20116;-72
2021/04/13 07:24:17;;;;;;;18.17;16.40;;;1.90;99.90;;;;;;5023025;28;20037;-72
2021/04/13 07:26:47;;;;;;;18.40;16.52;;;2.00;99.90;;;;;;5021247;28;20105;-72
2021/04/13 07:29:21;;;;;;;18.30;16.52;;;2.20;99.90;;;;;;5022247;28;20041;-72
2021/04/13 07:32:14;;;;;;;17.40;15.60;;;2.40;99.90;;;;;;5021242;28;20026;-72
2021/04/13 07:34:41;;;;;;;17.35;15.45;;;2.40;99.90;;;;;;5021323;28;20026;-72
2021/04/13 07:37:23;;;;;;;17.35;15.52;;;2.50;99.90;;;;;;5034408;28;20518;-72
2021/04/13 07:39:53;;;;;;;16.70;15.00;;;2.50;99.90;;;;;;5026753;28;20025;-72
2021/04/13 07:42:26;;;;;;;16.63;14.95;;;2.50;99.90;;;;;;5038873;28;20387;-72
2021/04/13 07:45:08;;;;;;;16.13;14.43;;;2.70;99.90;;;;;;5022180;28;20549;-72
2021/04/13 07:48:07;;;;;;;15.00;13.50;;;2.80;99.90;;;;;;5020804;28;20029;-72
2021/04/13 07:50:59;;;;;;;15.63;13.98;;;2.90;99.90;;;;;;5047657;28;20429;-72
2021/04/13 07:53:46;;;;;;;15.77;14.20;;;3.10;99.90;;;;;;5021726;28;20515;-72
2021/04/13 07:56:42;;;;;;;12.93;11.63;;;3.00;99.90;;;;;;5021498;28;20522;-72
2021/04/13 07:59:28;;;;;;;14.23;12.32;;;3.10;99.90;;;;;;5029153;28;20065;-72
2021/04/13 08:01:54;;;;;;;13.38;11.98;;;3.20;99.90;;;;;;5020556;28;20452;-72
2021/04/13 08:04:26;;;;;;;13.10;11.85;;;3.20;99.90;;;;;;5026440;28;20080;-72
2021/04/13 08:07:12;;;;;;;11.27;10.07;;;3.20;99.90;;;;;;5026060;28;20018;-72
2021/04/13 08:09:41;;;;;;;10.95;9.88;;;3.40;99.90;;;;;;5014002;28;20048;-72
2021/04/13 08:12:29;;;;;;;9.93;8.93;;;3.40;99.90;;;;;;5018556;28;20033;-72
2021/04/13 08:14:55;;;;;;;8.90;8.00;;;3.50;99.90;;;;;;5017991;28;20025;-72
2021/04/13 08:17:26;;;;;;;8.95;8.05;;;3.50;99.90;;;;;;5021369;28;20036;-72
2021/04/13 08:20:02;;;;;;;9.77;8.77;;;3.50;99.90;;;;;;5045481;28;20025;-72
2021/04/13 08:22:45;;;;;;;9.45;8.55;;;3.50;99.90;;;;;;5043171;28;20037;-72
2021/04/13 08:25:11;;;;;;;10.52;8.00;;;3.50;99.90;;;;;;5028996;28;20026;-72
2021/04/13 08:27:43;;;;;;;9.13;8.25;;;3.60;99.90;;;;;;5036635;28;20116;-72
2021/04/13 08:30:22;;;;;;;8.48;7.60;;;3.70;99.90;;;;;;5033720;28;20029;-72
2021/04/13 08:32:51;;;;;;;8.07;7.15;;;3.60;99.90;;;;;;5018855;28;20105;-72
2021/04/13 08:35:49;;;;;;;7.00;5.97;;;3.40;99.90;;;;;;5033413;28;20419;-72
2021/04/13 08:38:40;;;;;;;7.65;5.88;;;3.40;99.90;;;;;;5019066;28;20537;-72
2021/04/13 08:41:17;;;;;;;5.80;5.18;;;3.80;99.90;;;;;;5019850;28;20108;-72
2021/04/13 08:43:46;;;;;;;7.43;5.40;;;4.20;99.90;;;;;;5019974;28;20499;-72
2021/04/13 08:46:26;;;;;;;5.53;4.95;;;4.40;99.90;;;;;;5026617;28;20030;-72
2021/04/13 08:49:03;;;;;;;7.75;5.35;;;4.00;99.90;;;;;;5040070;28;20167;-73
2021/04/13 08:51:42;;;;;;;5.57;4.60;;;4.10;99.90;;;;;;5023705;28;20018;-72
2021/04/13 08:54:33;;;;;;;4.95;4.22;;;3.90;99.90;;;;;;5024764;28;20056;-72
2021/04/13 08:57:02;;;;;;;4.80;4.30;;;3.70;99.90;;;;;;5026362;28;20028;-72
2021/04/13 08:59:44;;;;;;;4.32;3.88;;;3.80;99.90;;;;;;5023412;28;20591;-72
2021/04/13 09:02:24;;;;;;;5.00;3.75;;;4.00;99.90;;;;;;5026188;28;20026;-72
2021/04/13 09:05:23;;;;;;;4.57;3.67;;;4.00;99.90;;;;;;5024217;28;20032;-72
2021/04/13 09:07:54;;;;;;;4.90;4.03;;;3.90;99.90;;;;;;5020033;28;20033;-72
2021/04/13 09:10:40;;;;;;;5.50;4.38;;;4.20;99.90;;;;;;5028304;28;20025;-72
2021/04/13 09:13:22;;;;;;;4.60;4.15;;;4.70;99.90;;;;;;5032455;28;20388;-72
2021/04/13 09:15:52;;;;;;;5.45;3.85;;;4.90;99.90;;;;;;5032281;28;20536;-73
2021/04/13 09:18:27;;;;;;;4.72;4.32;;;4.70;99.90;;;;;;5020242;28;20658;-73
2021/04/13 09:21:28;;;;;;;5.47;3.97;;;4.90;99.90;;;;;;5023086;28;20029;-73
2021/04/13 09:23:57;;;;;;;5.13;4.28;;;5.00;99.90;;;;;;5028256;28;20426;-72
2021/04/13 09:26:36;;;;;;;4.55;4.03;;;5.10;99.90;;;;;;5034399;28;20034;-73
2021/04/13 09:29:08;;;;;;;5.40;3.28;;;4.90;99.90;;;;;;5024926;28;20025;-73
2021/04/13 09:31:39;;;;;;;5.95;4.03;;;4.50;99.90;;;;;;5032607;28;20025;-73
2021/04/13 09:34:31;;;;;;;6.07;4.18;;;4.60;99.90;;;;;;5041028;28;20045;-73
2021/04/13 09:37:18;;;;;;;8.48;4.85;;;4.80;99.90;;;;;;5021029;28;20116;-72
2021/04/13 09:39:56;;;;;;;4.28;3.58;;;5.10;99.90;;;;;;5028721;28;20510;-72
2021/04/13 09:42:52;;;;;;;4.15;3.30;;;4.90;99.90;;;;;;5038505;28;20075;-72
2021/04/13 09:45:40;;;;;;;4.32;3.00;;;5.00;99.90;;;;;;5021573;28;20571;-72
2021/04/13 09:48:52;;;;;;;5.57;3.40;;;5.10;99.90;;;;;;5043597;28;20037;-73
2021/04/13 09:51:23;;;;;;;3.85;3.33;;;5.40;99.90;;;;;;5017706;28;20021;-73
2021/04/13 09:54:18;;;;;;;5.90;3.42;;;5.90;99.90;;;;;;5031107;28;20395;-72
2021/04/13 09:57:23;;;;;;;7.60;6.50;;;6.00;99.90;;;;;;5030207;28;20018;-73
2021/04/13 10:00:07;;;;;;;3.25;2.67;;;6.10;99.90;;;;;;5034859;28;20013;-72
2021/04/13 10:03:03;;;;;;;3.45;2.40;;;5.50;99.90;;;;;;5041733;28;20025;-72
2021/04/13 10:05:31;;;;;;;3.45;2.90;;;5.70;99.90;;;;;;5043074;28;20032;-73
2021/04/13 10:08:15;;;;;;;4.72;3.17;;;6.00;99.90;;;;;;5045698;28;20383;-72
2021/04/13 10:11:11;;;;;;;4.70;3.63;;;6.40;99.90;;;;;;5042347;28;20022;-73
2021/04/13 10:14:13;;;;;;;5.45;3.67;;;6.70;99.90;;;;;;5040882;28;20041;-72
2021/04/13 10:17:18;;;;;;;4.50;3.85;;;6.30;99.90;;;;;;5062445;28;20025;-73
2021/04/13 10:20:08;;;;;;;4.35;3.50;;;6.10;99.90;;;;;;5040258;28;20019;-72
2021/04/13 10:23:00;;;;;;;4.43;3.90;;;6.50;99.90;;;;;;5039219;28;20525;-72
2021/04/13 10:25:37;;;;;;;3.50;3.20;;;6.10;99.90;;;;;;5044608;28;20259;-72
2021/04/13 10:28:25;;;;;;;4.30;3.63;;;6.30;99.90;;;;;;5040176;28;20100;-73
2021/04/13 10:31:27;;;;;;;5.80;3.55;;;6.50;99.90;;;;;;5043104;28;20013;-73
2021/04/13 10:34:10;;;;;;;3.50;3.20;;;6.20;99.90;;;;;;5038253;28;20109;-72
2021/04/13 10:36:51;;;;;;;4.43;4.03;;;6.00;99.90;;;;;;5044044;28;20098;-72
2021/04/13 10:39:55;;;;;;;4.43;3.63;;;5.80;99.90;;;;;;5040477;28;20025;-73
2021/04/13 10:42:52;;;;;;;3.90;3.50;;;6.20;99.90;;;;;;5038632;28;20067;-72
2021/04/13 10:45:54;;;;;;;5.65;3.97;;;6.40;99.90;;;;;;5042537;28;20033;-73
2021/04/13 10:48:57;;;;;;;4.25;3.80;;;6.90;99.90;;;;;;5038105;28;20025;-73
2021/04/13 10:51:55;;;;;;;4.45;4.03;;;7.10;99.90;;;;;;5041677;28;20498;-73
2021/04/13 10:54:39;;;;;;;4.82;4.30;;;7.40;99.90;;;;;;5037266;28;20038;-72
2021/04/13 10:57:40;;;;;;;4.70;4.13;;;6.50;99.90;;;;;;5041833;28;20410;-73
2021/04/13 11:00:24;;;;;;;5.88;4.45;;;6.10;99.90;;;;;;5038632;28;20078;-73
2021/04/13 11:03:09;;;;;;;5.40;4.90;;;6.00;99.90;;;;;;5036308;28;20391;-72
2021/04/13 11:05:56;;;;;;;7.85;4.78;;;5.80;99.90;;;;;;5040461;28;20025;-72
2021/04/13 11:08:32;;;;;;;6.15;4.53;;;6.00;99.90;;;;;;5040392;28;20391;-72
2021/04/13 11:11:50;;;;;;;4.72;4.30;;;6.20;99.90;;;;;;5045260;28;20405;-72
2021/04/13 11:14:27;;;;;;;4.88;4.30;;;6.10;99.90;;;;;;5020478;28;20021;-73
2021/04/13 11:17:25;;;;;;;4.00;3.70;;;6.20;99.90;;;;;;5043112;28;20021;-73
2021/04/13 11:20:19;;;;;;;3.55;3.25;;;6.50;99.90;;;;;;5037950;28;20018;-72
2021/04/13 11:23:28;;;;;;;4.00;3.70;;;6.70;99.90;;;;;;5034952;28;20017;-72
2021/04/13 11:26:39;;;;;;;4.32;3.92;;;7.10;99.90;;;;;;5039485;28;20058;-73
2021/04/13 11:29:22;;;;;;;3.88;3.47;;;6.90;99.90;;;;;;5044616;28;20017;-72
2021/04/13 11:32:09;;;;;;;4.68;3.92;;;6.60;99.90;;;;;;5028115;28;20018;-73
2021/04/13 11:34:55;;;;;;;4.70;4.25;;;6.60;99.90;;;;;;5031922;28;20055;-73
2021/04/13 11:37:45;;;;;;;4.60;4.20;;;6.30;99.90;;;;;;5041891;28;20022;-72
2021/04/13 11:40:28;;;;;;;6.38;4.47;;;6.30;99.90;;;;;;5022295;28;20026;-72
2021/04/13 11:42:56;;;;;;;5.40;4.85;;;6.40;99.90;;;;;;5020876;28;20479;-72
2021/04/13 11:45:31;;;;;;;4.53;3.83;;;7.00;99.90;;;;;;5032736;28;20040;-72
2021/04/13 11:48:25;;;;;;;4.45;4.03;;;7.30;99.90;;;;;;5020843;28;20026;-72
2021/04/13 11:51:08;;;;;;;4.30;3.90;;;7.40;98.40;;;;;;5020737;28;20025;-73
2021/04/13 11:53:43;;;;;;;3.60;3.30;;;7.40;99.90;;;;;;5021664;28;20100;-71
2021/04/13 11:56:21;;;;;;;4.05;3.50;;;6.90;99.90;;;;;;5019932;28;20021;-73
2021/04/13 11:59:16;;;;;;;4.10;3.63;;;7.10;99.90;;;;;;5019365;28;20037;-73
2021/04/13 12:01:45;;;;;;;6.50;3.70;;;7.80;99.90;;;;;;5019861;28;20391;-72
2021/04/13 12:04:13;;;;;;;4.57;3.40;;;8.00;99.90;;;;;;5027101;28;20026;-73
2021/04/13 12:06:59;;;;;;;5.22;2.78;;;8.30;97.70;;;;;;5014125;28;20026;-73
2021/04/13 12:09:57;;;;;;;3.65;3.35;;;8.40;93.00;;;;;;5024435;28;20105;-73
2021/04/13 12:12:34;;;;;;;4.18;3.75;;;8.40;98.70;;;;;;5046891;28;20024;-73
2021/04/13 12:15:03;;;;;;;3.58;3.22;;;8.20;95.90;;;;;;5019035;28;20484;-72
2021/04/13 12:17:38;;;;;;;2.83;2.63;;;8.50;97.00;;;;;;5024250;28;20033;-73
2021/04/13 12:20:29;;;;;;;3.03;2.55;;;8.90;93.30;;;;;;5025814;28;20030;-73
2021/04/13 12:22:57;;;;;;;3.03;2.70;;;8.70;87.20;;;;;;5027020;28;20403;-72
2021/04/13 12:25:41;;;;;;;3.38;2.63;;;9.00;90.70;;;;;;5020697;28;20032;-73
2021/04/13 12:28:11;;;;;;;3.58;2.95;;;8.90;91.40;;;;;;5018778;28;20088;-74
2021/04/13 12:30:43;;;;;;;3.05;2.78;;;9.30;91.70;;;;;;5023120;28;20030;-74
2021/04/13 12:33:27;;;;;;;3.17;2.88;;;9.00;88.90;;;;;;5026915;28;20069;-72
2021/04/13 12:36:06;;;;;;;3.28;2.97;;;9.10;90.40;;;;;;5014496;28;20060;-72
2021/04/13 12:38:43;;;;;;;3.40;2.67;;;10.20;92.00;;;;;;5042906;28;20438;-73
2021/04/13 12:41:20;;;;;;;3.20;2.90;;;10.30;90.80;;;;;;5018580;28;20028;-72
2021/04/13 12:43:49;;;;;;;2.80;2.60;;;10.30;80.10;;;;;;5020029;28;20373;-73
2021/04/13 12:46:41;;;;;;;3.25;2.25;;;10.00;83.20;;;;;;5026507;28;20026;-73
2021/04/13 12:49:13;;;;;;;2.60;2.40;;;12.00;77.10;;;;;;5023157;28;20120;-72
2021/04/13 12:52:02;;;;;;;2.95;2.35;;;12.70;70.90;;;;;;5021663;28;20033;-73
2021/04/13 12:54:29;;;;;;;2.72;2.30;;;11.50;75.10;;;;;;5019494;28;20083;-73
2021/04/13 12:57:11;;;;;;;3.25;2.28;;;11.80;79.10;;;;;;5018670;28;20108;-73
2021/04/13 12:59:37;;;;;;;3.65;2.47;;;11.90;73.80;;;;;;5021743;28;20388;-73
2021/04/13 13:02:05;;;;;;;4.25;2.20;;;11.80;75.20;;;;;;5016129;28;20022;-73
2021/04/13 13:04:36;;;;;;;3.15;2.90;;;12.20;77.20;;;;;;5020354;28;20025;-73
2021/04/13 13:07:04;;;;;;;2.13;1.65;;;12.10;71.90;;;;;;5018009;28;20026;-74
2021/04/13 13:09:40;;;;;;;2.22;1.80;;;9.90;74.70;;;;;;5022909;28;20507;-73
2021/04/13 13:12:08;;;;;;;;;;;10.30;74.30;;;;;;5025214;28;20026;-73
2021/04/13 13:14:39;;;;;;;2.22;2.08;;;12.00;72.20;;;;;;5024164;28;19905;-73
2021/04/13 13:17:04;;;;;;;3.88;2.20;;;10.80;69.80;;;;;;5019245;28;20025;-73
2021/04/13 13:19:42;;;;;;;2.13;1.50;;;10.40;72.10;;;;;;5018931;28;20021;-73
2021/04/13 13:22:19;;;;;;;3.17;2.33;;;9.30;72.60;;;;;;5018573;28;20021;-73
2021/04/13 13:24:48;;;;;;;3.40;1.90;;;10.10;74.70;;;;;;5028895;28;20074;-74
2021/04/13 13:27:14;;;;;;;2.20;2.00;;;12.20;70.10;;;;;;5021794;28;20401;-73
2021/04/13 13:29:39;;;;;;;2.00;1.70;;;11.80;68.60;;;;;;5019027;28;20022;-72
2021/04/13 13:32:05;;;;;;;1.50;1.40;;;11.00;72.60;;;;;;5021981;28;20057;-73
2021/04/13 13:34:31;;;;;;;2.00;1.65;;;10.20;74.50;;;;;;5030207;28;20033;-73